Flight Track Log - Related Links

Times and Time Zones

All times are in EDT time to prevent confusion due to time zone crossing. See the ASH2792 flight status page for this flight to view local times or setup timezone preferences in your user account.

Time Position Orientation Groundspeed Altitude Reporting Facility
EDT Latitude Longitude Course Direction KTS MPH feet Rate Location/Type
Fri 12:02:56 PM 34.7114 -92.2544 82° East 173 199 1,100  Level Memphis Center
Fri 12:03:27 PM 34.6922 -92.2717 216° Southwest 189 217 2,000 2,073 Climbing Memphis Center
Fri 12:04:46 PM 34.6389 -92.2250 144° Southeast 248 285 4,900 2,220 Climbing Memphis Center
Fri 12:06:00 PM 34.7872 -91.6934 78° East  Level FlightAware Approximate
Fri 12:06:20 PM 34.6556 -92.0789 82° East 302 348 8,400  Level Memphis Center
Fri 12:07:00 PM 34.8091 -91.5625 78° East  Level FlightAware Approximate
Fri 12:07:20 PM 34.6672 -91.9783 82° East 302 348 10,700  Level Memphis Center
Fri 12:08:00 PM 34.8208 -91.4301 82° East  Level FlightAware Approximate
Fri 12:08:20 PM 34.6811 -91.8622 82° East 319 367 12,400  Level Memphis Center
Fri 12:09:20 PM 34.7078 -91.7264 77° East 357 411 14,900 2,400 Climbing Memphis Center
Fri 12:10:20 PM 34.7258 -91.6028 80° East 369 425 17,200 2,150 Climbing Memphis Center
Fri 12:11:20 PM 34.7542 -91.4719 75° East 385 443 19,200 1,650 Climbing Memphis Center
Fri 12:12:20 PM 34.7739 -91.3533 79° East 392 451 20,500 1,400 Climbing Memphis Center
Fri 12:13:20 PM 34.8000 -91.2144 77° East 409 471 22,000 1,400 Climbing Memphis Center
Fri 12:14:20 PM 34.8258 -91.0681 78° East 428 493 23,300 1,400 Climbing Memphis Center
Fri 12:15:20 PM 34.8539 -90.9189 77° East 444 511 24,800 850 Climbing Memphis Center
Fri 12:16:20 PM 34.8794 -90.7697 78° East 452 520 25,000 100 Climbing Memphis Center
Fri 12:17:20 PM 34.9069 -90.6181 77° East 452 520 25,000  Level Memphis Center
Fri 12:18:20 PM 34.9364 -90.4558 77° East 445 512 25,000  Level Memphis Center
Fri 12:19:20 PM 34.9614 -90.3064 78° East 450 518 25,000  Level Memphis Center
Fri 12:20:20 PM 34.9864 -90.1619 78° East 450 518 25,000  Level Memphis Center
Fri 12:21:20 PM 35.0131 -90.0122 78° East 445 512 25,000  Level Memphis Center
Fri 12:22:20 PM 35.0397 -89.8625 78° East 445 512 25,000  Level Memphis Center
Fri 12:23:20 PM 35.0661 -89.7278 77° East 450 518 25,000  Level Memphis Center
Fri 12:24:20 PM 35.1156 -89.5878 67° East 450 518 25,000  Level Memphis Center
Fri 12:25:20 PM 35.1667 -89.4453 66° East 450 518 25,000  Level Memphis Center
Fri 12:26:20 PM 35.2178 -89.3047 66° East 450 518 25,000  Level Memphis Center
Fri 12:27:20 PM 35.2686 -89.1642 66° East 450 518 25,000  Level Memphis Center
Fri 12:28:20 PM 35.3253 -89.0083 66° East 450 518 25,000  Level Memphis Center
Fri 12:29:20 PM 35.3739 -88.8750 66° East 440 506 25,000  Level Memphis Center
Fri 12:30:20 PM 35.4203 -88.7367 68° East 435 501 25,000  Level Memphis Center
Fri 12:31:20 PM 35.4706 -88.5981 66° East 435 501 25,000  Level Memphis Center
Fri 12:32:20 PM 35.5206 -88.4617 66° East 435 501 25,000  Level Memphis Center
Fri 12:33:20 PM 35.5706 -88.3228 66° East 441 507 25,000  Level Memphis Center
Fri 12:34:20 PM 35.6203 -88.1836 66° East 441 507 25,000  Level Memphis Center
Fri 12:35:20 PM 35.6678 -88.0469 67° East 435 501 25,000  Level Memphis Center
Fri 12:36:20 PM 35.7172 -87.9075 66° East 435 501 25,000  Level Memphis Center
Fri 12:37:20 PM 35.7667 -87.7731 66° East 441 507 25,000  Level Memphis Center
Fri 12:38:20 PM 35.8139 -87.6333 67° East 436 502 25,000  Level Memphis Center
Fri 12:39:20 PM 35.8608 -87.4961 67° East 436 502 25,000  Level Memphis Center
Fri 12:40:20 PM 35.9094 -87.3508 68° East 442 509 25,000  Level Memphis Center
Fri 12:41:20 PM 35.9119 -87.1969 89° East 442 509 25,000  Level Memphis Center
Fri 12:42:20 PM 35.9139 -87.0353 89° East 457 526 25,000  Level Memphis Center
Fri 12:43:20 PM 35.9133 -86.8689 90° East 479 551 25,000  Level Memphis Center
Fri 12:44:20 PM 35.9169 -86.7019 88° East 485 558 25,000  Level Memphis Center
Fri 12:45:20 PM 35.9181 -86.5328 89° East 485 558 25,000  Level Memphis Center
Fri 12:46:20 PM 35.9178 -86.3894 90° East 480 552 25,000  Level Memphis Center
Fri 12:47:20 PM 35.9167 -86.2253 90° East 474 545 25,000  Level Memphis Center
Fri 12:49:22 PM 35.9189 -85.9053 89° East 481 554 25,000  Level Atlanta Center
Fri 12:50:22 PM 35.9192 -85.7489 90° East 464 534 25,000  Level Atlanta Center
Fri 12:51:22 PM 35.9192 -85.5925 90° East 454 522 25,000  Level Atlanta Center
Fri 12:52:22 PM 35.9189 -85.4386 90° East 454 522 25,000  Level Atlanta Center
Fri 12:53:22 PM 35.9186 -85.2797 90° East 459 528 25,000  Level Atlanta Center
Fri 12:54:22 PM 35.9181 -85.1233 90° East 459 528 25,000  Level Atlanta Center
Fri 12:55:22 PM 35.9150 -84.9644 91° East 459 528 25,000  Level Atlanta Center
Fri 12:56:22 PM 35.9161 -84.7900 89° East 459 528 25,000  Level Atlanta Center
Fri 12:57:22 PM 35.9150 -84.6336 90° East 459 528 25,000  Level Atlanta Center
Fri 12:58:22 PM 35.9114 -84.4797 92° East 459 528 25,000  Level Atlanta Center
Fri 12:59:22 PM 35.9100 -84.3183 91° East 459 528 25,000  Level Atlanta Center
Fri 01:00:22 PM 35.9081 -84.1619 91° East 459 528 25,000  Level Atlanta Center
Fri 01:01:22 PM 35.9061 -84.0056 91° East 459 528 25,000  Level Atlanta Center
Fri 01:02:22 PM 35.9039 -83.8464 91° East 459 528 25,000  Level Atlanta Center
Fri 01:03:22 PM 35.9014 -83.6875 91° East 459 528 25,000  Level Atlanta Center
Fri 01:04:22 PM 35.8967 -83.5286 92° East 459 528 25,000  Level Atlanta Center
Fri 01:05:22 PM 35.8936 -83.3697 91° East 459 528 25,000  Level Atlanta Center
Fri 01:06:22 PM 35.8906 -83.2108 91° East 459 528 25,000  Level Atlanta Center
Fri 01:07:22 PM 35.8853 -83.0469 92° East 459 528 25,000  Level Atlanta Center
Fri 01:08:22 PM 35.8819 -82.8881 91° East 459 528 25,000 -200 Level Atlanta Center
Fri 01:09:22 PM 35.8781 -82.7292 92° East 459 528 24,600 -500 Descending Atlanta Center
Fri 01:10:22 PM 35.8742 -82.5653 92° East 459 528 24,000 -600 Descending Atlanta Center
Fri 01:11:22 PM 35.8700 -82.4039 92° East 470 541 23,400 -800 Descending Atlanta Center
Fri 01:12:22 PM 35.8636 -82.2478 93° East 464 534 22,400 -1,000 Descending Atlanta Center
Fri 01:13:22 PM 35.8575 -82.1069 93° East 424 488 21,400 -1,500 Descending Atlanta Center
Fri 01:14:22 PM 35.7992 -81.9853 121° Southeast 403 464 19,400 -2,050 Descending Atlanta Center
Fri 01:15:22 PM 35.7494 -81.8792 120° Southeast 403 464 17,300 -2,300 Descending Atlanta Center
Fri 01:16:22 PM 35.6950 -81.7656 121° Southeast 395 455 14,800 -2,675 Descending Atlanta Center
Fri 01:16:45 PM 35.6692 -81.7178 124° Southeast 353 406 13,600 -2,200 Descending Atlanta Center
Fri 01:17:22 PM 35.6453 -81.6672 120° Southeast 358 412 12,600 -1,967 Descending Atlanta Center
Fri 01:17:46 PM 35.6236 -81.6244 122° Southeast 314 361 11,600 -1,600 Descending Atlanta Center
Fri 01:18:22 PM 35.5997 -81.5792 123° Southeast 319 367 11,000 -537 Descending Atlanta Center
Fri 01:18:53 PM 35.5675 -81.5317 130° Southeast 287 330 11,000 -100 Level Atlanta Center
Fri 01:19:22 PM 35.5625 -81.4936 99° East 292 336 10,900 -787 Descending Atlanta Center
Fri 01:19:54 PM 35.5633 -81.4272 89° East 303 349 10,200 -900 Descending Atlanta Center
Fri 01:20:22 PM 35.5644 -81.3889 88° East 281 323 10,000 -689 Descending Atlanta Center
Fri 01:20:55 PM 35.5653 -81.3250 89° East 299 344 9,500 -900 Descending Atlanta Center
Fri 01:21:22 PM 35.5644 -81.2867 92° East 293 337 9,100 -1,355 Descending Atlanta Center
Fri 01:21:57 PM 35.5672 -81.2253 87° East 291 335 8,100 -1,300 Descending Atlanta Center
Fri 01:22:22 PM 35.5664 -81.1897 92° East 293 337 7,800 -1,475 Descending Atlanta Center
Fri 01:22:58 PM 35.5692 -81.1333 87° East 246 283 6,600 -1,700 Descending Atlanta Center
Fri 01:23:22 PM 35.5683 -81.1028 92° East 267 307 6,100 -1,418 Descending Atlanta Center
Fri 01:23:53 PM 35.5717 -81.0617 84° East 245 282 5,300 -1,500 Descending Atlanta Center
Fri 01:24:22 PM 35.5644 -81.0236 103° East 248 285 4,600 -1,279 Descending Atlanta Center
Fri 01:24:54 PM 35.5303 -80.9969 148° Southeast 227 261 4,000 -600 Descending Atlanta Center
Fri 01:25:22 PM 35.5094 -80.9900 165° South 202 232 4,000  Level Atlanta Center
Fri 01:25:55 PM 35.4717 -80.9889 179° South 209 241 4,000  Level Atlanta Center
Fri 01:26:56 PM 35.4197 -80.9908 182° South 178 205 4,000 -195 Level Atlanta Center
Fri 01:27:58 PM 35.3736 -80.9847 174° South 168 193 3,600 -683 Descending Atlanta Center
Fri 01:28:59 PM 35.3233 -80.9792 175° South 166 191 2,600 -984 Descending Atlanta Center

Login

Don't have an account? Register now (free) for customized features, flight alerts, and more!